sensor_id;sensor_type;location;lat;lon;timestamp;temperature;humidity
8595;DHT22;4335;48.860;9.198;2023-04-03T00:01:34;4.20;99.90
8595;DHT22;4335;48.860;9.198;2023-04-03T00:04:10;4.20;99.90
8595;DHT22;4335;48.860;9.198;2023-04-03T00:06:39;4.10;99.90
8595;DHT22;4335;48.860;9.198;2023-04-03T00:09:07;4.10;99.90
8595;DHT22;4335;48.860;9.198;2023-04-03T00:11:37;4.10;99.90
8595;DHT22;4335;48.860;9.198;2023-04-03T00:14:06;4.10;99.90
8595;DHT22;4335;48.860;9.198;2023-04-03T00:16:38;4.10;99.90
8595;DHT22;4335;48.860;9.198;2023-04-03T00:19:05;4.10;99.90
8595;DHT22;4335;48.860;9.198;2023-04-03T00:21:36;4.10;99.90
8595;DHT22;4335;48.860;9.198;2023-04-03T00:24:03;4.00;99.90
8595;DHT22;4335;48.860;9.198;2023-04-03T00:26:36;4.00;99.90
8595;DHT22;4335;48.860;9.198;2023-04-03T00:29:07;4.00;99.90
8595;DHT22;4335;48.860;9.198;2023-04-03T00:31:41;4.00;99.90
8595;DHT22;4335;48.860;9.198;2023-04-03T00:34:09;3.90;99.90
8595;DHT22;4335;48.860;9.198;2023-04-03T00:36:36;4.00;99.90
8595;DHT22;4335;48.860;9.198;2023-04-03T00:39:06;4.00;99.90
8595;DHT22;4335;48.860;9.198;2023-04-03T00:41:40;4.00;99.90
8595;DHT22;4335;48.860;9.198;2023-04-03T00:47:28;4.00;99.90
8595;DHT22;4335;48.860;9.198;2023-04-03T00:49:57;4.00;99.90
8595;DHT22;4335;48.860;9.198;2023-04-03T00:52:27;4.00;99.90
8595;DHT22;4335;48.860;9.198;2023-04-03T00:54:57;4.00;99.90
8595;DHT22;4335;48.860;9.198;2023-04-03T00:57:26;4.00;99.90
8595;DHT22;4335;48.860;9.198;2023-04-03T00:59:57;4.00;99.90
8595;DHT22;4335;48.860;9.198;2023-04-03T01:02:28;3.90;99.90
8595;DHT22;4335;48.860;9.198;2023-04-03T01:04:58;4.00;99.90
8595;DHT22;4335;48.860;9.198;2023-04-03T01:07:29;3.90;99.90
8595;DHT22;4335;48.860;9.198;2023-04-03T01:09:58;3.90;99.90
8595;DHT22;4335;48.860;9.198;2023-04-03T01:12:29;3.90;99.90
8595;DHT22;4335;48.860;9.198;2023-04-03T01:15:08;3.90;99.90
8595;DHT22;4335;48.860;9.198;2023-04-03T01:17:45;3.90;99.90
8595;DHT22;4335;48.860;9.198;2023-04-03T01:23:26;3.80;99.90
8595;DHT22;4335;48.860;9.198;2023-04-03T01:26:00;3.80;99.90
8595;DHT22;4335;48.860;9.198;2023-04-03T01:28:29;3.70;99.90
8595;DHT22;4335;48.860;9.198;2023-04-03T01:31:02;3.80;99.90
8595;DHT22;4335;48.860;9.198;2023-04-03T01:33:34;3.80;99.90
8595;DHT22;4335;48.860;9.198;2023-04-03T01:36:06;3.70;99.90
8595;DHT22;4335;48.860;9.198;2023-04-03T01:38:37;3.70;99.90
8595;DHT22;4335;48.860;9.198;2023-04-03T01:41:04;3.70;99.90
8595;DHT22;4335;48.860;9.198;2023-04-03T01:43:41;3.70;99.90
8595;DHT22;4335;48.860;9.198;2023-04-03T01:46:18;3.70;99.90
8595;DHT22;4335;48.860;9.198;2023-04-03T01:48:50;3.80;99.90
8595;DHT22;4335;48.860;9.198;2023-04-03T01:51:17;3.80;99.90
8595;DHT22;4335;48.860;9.198;2023-04-03T01:53:45;3.70;99.90
8595;DHT22;4335;48.860;9.198;2023-04-03T01:56:12;3.70;99.90
8595;DHT22;4335;48.860;9.198;2023-04-03T01:58:46;3.60;99.90
8595;DHT22;4335;48.860;9.198;2023-04-03T02:01:19;3.70;99.90
8595;DHT22;4335;48.860;9.198;2023-04-03T02:03:47;3.70;99.90
8595;DHT22;4335;48.860;9.198;2023-04-03T02:06:15;3.70;99.90
8595;DHT22;4335;48.860;9.198;2023-04-03T02:08:43;3.60;99.90
8595;DHT22;4335;48.860;9.198;2023-04-03T02:11:13;3.60;99.90
8595;DHT22;4335;48.860;9.198;2023-04-03T02:13:43;3.60;99.90
8595;DHT22;4335;48.860;9.198;2023-04-03T02:16:11;3.60;99.90
8595;DHT22;4335;48.860;9.198;2023-04-03T02:18:42;3.60;99.90
8595;DHT22;4335;48.860;9.198;2023-04-03T02:21:09;3.60;99.90
8595;DHT22;4335;48.860;9.198;2023-04-03T02:23:38;3.60;99.90
8595;DHT22;4335;48.860;9.198;2023-04-03T02:26:08;3.60;99.90
8595;DHT22;4335;48.860;9.198;2023-04-03T02:28:37;3.60;99.90
8595;DHT22;4335;48.860;9.198;2023-04-03T02:31:05;3.60;99.90
8595;DHT22;4335;48.860;9.198;2023-04-03T02:33:39;3.70;99.90
8595;DHT22;4335;48.860;9.198;2023-04-03T02:36:07;3.60;99.90
8595;DHT22;4335;48.860;9.198;2023-04-03T02:38:35;3.60;99.90
8595;DHT22;4335;48.860;9.198;2023-04-03T02:41:06;3.60;99.90
8595;DHT22;4335;48.860;9.198;2023-04-03T02:43:37;3.60;99.90
8595;DHT22;4335;48.860;9.198;2023-04-03T02:46:05;3.70;99.90
8595;DHT22;4335;48.860;9.198;2023-04-03T02:48:32;3.70;99.90
8595;DHT22;4335;48.860;9.198;2023-04-03T02:51:06;3.70;99.90
8595;DHT22;4335;48.860;9.198;2023-04-03T02:53:33;3.70;99.90
8595;DHT22;4335;48.860;9.198;2023-04-03T02:56:05;3.70;99.90
8595;DHT22;4335;48.860;9.198;2023-04-03T02:58:36;3.70;99.90
8595;DHT22;4335;48.860;9.198;2023-04-03T03:01:09;3.70;99.90
8595;DHT22;4335;48.860;9.198;2023-04-03T03:03:40;3.60;99.90
8595;DHT22;4335;48.860;9.198;2023-04-03T03:06:17;3.60;99.90
8595;DHT22;4335;48.860;9.198;2023-04-03T03:08:47;3.60;99.90
8595;DHT22;4335;48.860;9.198;2023-04-03T03:11:16;3.60;99.90
8595;DHT22;4335;48.860;9.198;2023-04-03T03:13:44;3.60;99.90
8595;DHT22;4335;48.860;9.198;2023-04-03T03:16:14;3.60;99.90
8595;DHT22;4335;48.860;9.198;2023-04-03T03:18:41;3.70;99.90
8595;DHT22;4335;48.860;9.198;2023-04-03T03:21:18;3.70;99.90
8595;DHT22;4335;48.860;9.198;2023-04-03T03:23:46;3.60;99.90
8595;DHT22;4335;48.860;9.198;2023-04-03T03:26:13;3.60;99.90
8595;DHT22;4335;48.860;9.198;2023-04-03T03:28:45;3.60;99.90
8595;DHT22;4335;48.860;9.198;2023-04-03T03:31:12;3.70;99.90
8595;DHT22;4335;48.860;9.198;2023-04-03T03:33:41;3.70;99.90
8595;DHT22;4335;48.860;9.198;2023-04-03T03:36:08;3.70;99.90
8595;DHT22;4335;48.860;9.198;2023-04-03T03:38:38;3.70;99.90
8595;DHT22;4335;48.860;9.198;2023-04-03T03:41:06;3.70;99.90
8595;DHT22;4335;48.860;9.198;2023-04-03T03:43:33;3.60;99.90
8595;DHT22;4335;48.860;9.198;2023-04-03T03:46:04;3.60;99.90
8595;DHT22;4335;48.860;9.198;2023-04-03T03:48:32;3.60;99.90
8595;DHT22;4335;48.860;9.198;2023-04-03T03:51:01;3.60;99.90
8595;DHT22;4335;48.860;9.198;2023-04-03T03:53:29;3.70;99.90
8595;DHT22;4335;48.860;9.198;2023-04-03T03:55:56;3.70;99.90
8595;DHT22;4335;48.860;9.198;2023-04-03T03:58:24;3.70;99.90
8595;DHT22;4335;48.860;9.198;2023-04-03T04:00:51;3.60;99.90
8595;DHT22;4335;48.860;9.198;2023-04-03T04:03:20;3.60;99.90
8595;DHT22;4335;48.860;9.198;2023-04-03T04:05:51;3.70;99.90
8595;DHT22;4335;48.860;9.198;2023-04-03T04:08:18;3.70;99.90
8595;DHT22;4335;48.860;9.198;2023-04-03T04:10:49;3.80;99.90
8595;DHT22;4335;48.860;9.198;2023-04-03T04:13:16;3.80;99.90
8595;DHT22;4335;48.860;9.198;2023-04-03T04:15:44;3.80;99.90
8595;DHT22;4335;48.860;9.198;2023-04-03T04:18:19;3.80;99.90
8595;DHT22;4335;48.860;9.198;2023-04-03T04:20:54;3.70;99.90
8595;DHT22;4335;48.860;9.198;2023-04-03T04:23:24;3.80;99.90
8595;DHT22;4335;48.860;9.198;2023-04-03T04:25:52;3.80;99.90
8595;DHT22;4335;48.860;9.198;2023-04-03T04:28:19;3.80;99.90
8595;DHT22;4335;48.860;9.198;2023-04-03T04:30:49;3.70;99.90
8595;DHT22;4335;48.860;9.198;2023-04-03T04:33:24;3.80;99.90
8595;DHT22;4335;48.860;9.198;2023-04-03T04:35:51;3.80;99.90
8595;DHT22;4335;48.860;9.198;2023-04-03T04:38:21;3.70;99.90
8595;DHT22;4335;48.860;9.198;2023-04-03T04:40:49;3.80;99.90
8595;DHT22;4335;48.860;9.198;2023-04-03T04:43:17;3.80;99.90
8595;DHT22;4335;48.860;9.198;2023-04-03T04:45:44;3.80;99.90
8595;DHT22;4335;48.860;9.198;2023-04-03T04:48:11;3.80;99.90
8595;DHT22;4335;48.860;9.198;2023-04-03T04:50:40;3.80;99.90
8595;DHT22;4335;48.860;9.198;2023-04-03T04:53:07;3.80;99.90
8595;DHT22;4335;48.860;9.198;2023-04-03T04:55:37;3.80;99.90
8595;DHT22;4335;48.860;9.198;2023-04-03T04:58:08;3.80;99.90
8595;DHT22;4335;48.860;9.198;2023-04-03T05:00:38;3.80;99.90
8595;DHT22;4335;48.860;9.198;2023-04-03T05:03:06;3.90;99.90
8595;DHT22;4335;48.860;9.198;2023-04-03T05:05:41;3.90;99.90
8595;DHT22;4335;48.860;9.198;2023-04-03T05:08:11;4.00;99.90
8595;DHT22;4335;48.860;9.198;2023-04-03T05:10:38;4.00;99.90
8595;DHT22;4335;48.860;9.198;2023-04-03T05:13:06;4.00;99.90
8595;DHT22;4335;48.860;9.198;2023-04-03T05:15:34;4.00;99.90
8595;DHT22;4335;48.860;9.198;2023-04-03T05:18:04;4.00;99.90
8595;DHT22;4335;48.860;9.198;2023-04-03T05:20:31;4.00;99.90
8595;DHT22;4335;48.860;9.198;2023-04-03T05:23:00;4.00;99.90
8595;DHT22;4335;48.860;9.198;2023-04-03T05:25:31;4.00;99.90
8595;DHT22;4335;48.860;9.198;2023-04-03T05:28:04;4.00;99.90
8595;DHT22;4335;48.860;9.198;2023-04-03T05:30:34;4.00;99.90
8595;DHT22;4335;48.860;9.198;2023-04-03T05:33:05;4.10;99.90
8595;DHT22;4335;48.860;9.198;2023-04-03T05:35:33;4.10;99.90
8595;DHT22;4335;48.860;9.198;2023-04-03T05:38:03;4.20;99.90
8595;DHT22;4335;48.860;9.198;2023-04-03T05:40:33;4.20;99.90
8595;DHT22;4335;48.860;9.198;2023-04-03T05:43:03;4.20;99.90
8595;DHT22;4335;48.860;9.198;2023-04-03T05:45:30;4.20;99.90
8595;DHT22;4335;48.860;9.198;2023-04-03T05:48:04;4.20;99.90
8595;DHT22;4335;48.860;9.198;2023-04-03T05:50:34;4.10;99.90
8595;DHT22;4335;48.860;9.198;2023-04-03T05:53:03;4.00;99.90
8595;DHT22;4335;48.860;9.198;2023-04-03T05:55:37;4.00;99.90
8595;DHT22;4335;48.860;9.198;2023-04-03T05:58:04;4.00;99.90
8595;DHT22;4335;48.860;9.198;2023-04-03T06:00:31;4.00;99.90
8595;DHT22;4335;48.860;9.198;2023-04-03T06:02:59;3.80;99.90
8595;DHT22;4335;48.860;9.198;2023-04-03T06:05:30;3.80;99.90
8595;DHT22;4335;48.860;9.198;2023-04-03T06:07:57;3.80;99.90
8595;DHT22;4335;48.860;9.198;2023-04-03T06:10:26;3.90;99.90
8595;DHT22;4335;48.860;9.198;2023-04-03T06:12:56;3.90;99.90
8595;DHT22;4335;48.860;9.198;2023-04-03T06:15:24;3.80;99.90
8595;DHT22;4335;48.860;9.198;2023-04-03T06:17:51;3.90;99.90
8595;DHT22;4335;48.860;9.198;2023-04-03T06:20:19;3.80;99.90
8595;DHT22;4335;48.860;9.198;2023-04-03T06:22:49;3.80;99.90
8595;DHT22;4335;48.860;9.198;2023-04-03T06:25:17;3.70;99.90
8595;DHT22;4335;48.860;9.198;2023-04-03T06:27:47;3.80;99.90
8595;DHT22;4335;48.860;9.198;2023-04-03T06:30:14;3.80;99.90
8595;DHT22;4335;48.860;9.198;2023-04-03T06:32:43;3.80;99.90
8595;DHT22;4335;48.860;9.198;2023-04-03T06:35:14;3.80;99.90
8595;DHT22;4335;48.860;9.198;2023-04-03T06:37:42;3.80;99.90
8595;DHT22;4335;48.860;9.198;2023-04-03T06:40:24;3.80;99.90
8595;DHT22;4335;48.860;9.198;2023-04-03T06:48:19;4.10;99.90
8595;DHT22;4335;48.860;9.198;2023-04-03T06:50:49;4.10;99.90
8595;DHT22;4335;48.860;9.198;2023-04-03T06:53:17;4.10;99.90
8595;DHT22;4335;48.860;9.198;2023-04-03T06:55:44;4.20;99.90
8595;DHT22;4335;48.860;9.198;2023-04-03T06:58:15;4.20;99.90
8595;DHT22;4335;48.860;9.198;2023-04-03T07:00:46;4.20;99.90
8595;DHT22;4335;48.860;9.198;2023-04-03T07:03:14;4.30;99.90
8595;DHT22;4335;48.860;9.198;2023-04-03T07:05:43;4.20;99.90
8595;DHT22;4335;48.860;9.198;2023-04-03T07:08:18;4.20;99.90
8595;DHT22;4335;48.860;9.198;2023-04-03T07:10:49;4.20;99.90
8595;DHT22;4335;48.860;9.198;2023-04-03T07:13:17;4.20;99.90
8595;DHT22;4335;48.860;9.198;2023-04-03T07:15:44;4.20;99.90
8595;DHT22;4335;48.860;9.198;2023-04-03T07:18:15;4.40;99.90
8595;DHT22;4335;48.860;9.198;2023-04-03T07:20:45;4.40;99.90
8595;DHT22;4335;48.860;9.198;2023-04-03T07:23:15;4.50;99.90
8595;DHT22;4335;48.860;9.198;2023-04-03T07:25:50;4.70;99.90
8595;DHT22;4335;48.860;9.198;2023-04-03T07:28:19;4.80;99.90
8595;DHT22;4335;48.860;9.198;2023-04-03T07:30:51;4.90;99.90
8595;DHT22;4335;48.860;9.198;2023-04-03T07:33:21;5.00;99.90
8595;DHT22;4335;48.860;9.198;2023-04-03T07:35:50;5.00;99.90
8595;DHT22;4335;48.860;9.198;2023-04-03T07:38:18;5.20;99.90
8595;DHT22;4335;48.860;9.198;2023-04-03T07:40:52;5.40;99.90
8595;DHT22;4335;48.860;9.198;2023-04-03T07:43:20;5.50;99.90
8595;DHT22;4335;48.860;9.198;2023-04-03T07:45:49;5.40;99.90
8595;DHT22;4335;48.860;9.198;2023-04-03T07:48:17;5.70;99.90
8595;DHT22;4335;48.860;9.198;2023-04-03T07:50:45;5.80;99.90
8595;DHT22;4335;48.860;9.198;2023-04-03T07:53:17;5.80;99.90
8595;DHT22;4335;48.860;9.198;2023-04-03T07:55:47;6.00;99.90
8595;DHT22;4335;48.860;9.198;2023-04-03T07:58:18;6.10;99.90
8595;DHT22;4335;48.860;9.198;2023-04-03T08:00:46;6.10;99.90
8595;DHT22;4335;48.860;9.198;2023-04-03T08:03:16;6.10;99.90
8595;DHT22;4335;48.860;9.198;2023-04-03T08:05:45;6.10;99.90
8595;DHT22;4335;48.860;9.198;2023-04-03T08:08:16;6.20;99.90
8595;DHT22;4335;48.860;9.198;2023-04-03T08:10:45;6.20;99.90
8595;DHT22;4335;48.860;9.198;2023-04-03T08:13:14;6.20;99.90
8595;DHT22;4335;48.860;9.198;2023-04-03T08:15:42;6.20;99.90
8595;DHT22;4335;48.860;9.198;2023-04-03T08:18:19;6.00;99.90
8595;DHT22;4335;48.860;9.198;2023-04-03T08:20:50;6.10;99.90
8595;DHT22;4335;48.860;9.198;2023-04-03T08:23:21;6.00;99.90
8595;DHT22;4335;48.860;9.198;2023-04-03T08:25:49;6.00;99.90
8595;DHT22;4335;48.860;9.198;2023-04-03T08:28:19;6.20;99.90
8595;DHT22;4335;48.860;9.198;2023-04-03T08:30:47;6.10;99.90
8595;DHT22;4335;48.860;9.198;2023-04-03T08:33:14;6.10;99.90
8595;DHT22;4335;48.860;9.198;2023-04-03T08:35:42;6.20;99.90
8595;DHT22;4335;48.860;9.198;2023-04-03T08:38:12;6.40;99.90
8595;DHT22;4335;48.860;9.198;2023-04-03T08:40:45;6.50;99.90
8595;DHT22;4335;48.860;9.198;2023-04-03T08:43:28;6.40;99.90
8595;DHT22;4335;48.860;9.198;2023-04-03T08:46:05;6.40;99.90
8595;DHT22;4335;48.860;9.198;2023-04-03T08:48:36;6.40;99.90
8595;DHT22;4335;48.860;9.198;2023-04-03T08:51:12;6.40;99.90
8595;DHT22;4335;48.860;9.198;2023-04-03T08:53:43;6.40;99.90
8595;DHT22;4335;48.860;9.198;2023-04-03T08:56:14;6.50;99.90
8595;DHT22;4335;48.860;9.198;2023-04-03T08:58:49;6.50;99.90
8595;DHT22;4335;48.860;9.198;2023-04-03T09:01:21;6.60;99.90
8595;DHT22;4335;48.860;9.198;2023-04-03T09:03:56;6.70;99.90
8595;DHT22;4335;48.860;9.198;2023-04-03T09:06:26;6.80;99.90
8595;DHT22;4335;48.860;9.198;2023-04-03T09:09:12;6.90;99.90
8595;DHT22;4335;48.860;9.198;2023-04-03T09:11:50;7.10;99.90
8595;DHT22;4335;48.860;9.198;2023-04-03T09:14:29;7.10;99.90
8595;DHT22;4335;48.860;9.198;2023-04-03T09:17:12;6.90;99.90
8595;DHT22;4335;48.860;9.198;2023-04-03T09:19:45;6.60;99.90
8595;DHT22;4335;48.860;9.198;2023-04-03T09:22:20;6.60;99.90
8595;DHT22;4335;48.860;9.198;2023-04-03T09:24:55;6.50;99.90
8595;DHT22;4335;48.860;9.198;2023-04-03T09:27:25;6.30;99.90
8595;DHT22;4335;48.860;9.198;2023-04-03T09:29:54;6.40;99.90
8595;DHT22;4335;48.860;9.198;2023-04-03T09:32:26;6.80;99.90
8595;DHT22;4335;48.860;9.198;2023-04-03T09:34:55;7.10;99.90
8595;DHT22;4335;48.860;9.198;2023-04-03T09:37:39;7.30;99.90
8595;DHT22;4335;48.860;9.198;2023-04-03T09:40:35;7.30;99.90
8595;DHT22;4335;48.860;9.198;2023-04-03T09:43:21;7.10;99.90
8595;DHT22;4335;48.860;9.198;2023-04-03T09:45:50;6.80;99.90
8595;DHT22;4335;48.860;9.198;2023-04-03T09:48:22;6.80;99.90
8595;DHT22;4335;48.860;9.198;2023-04-03T09:50:55;6.70;99.90
8595;DHT22;4335;48.860;9.198;2023-04-03T09:53:36;6.60;99.90
8595;DHT22;4335;48.860;9.198;2023-04-03T09:56:18;6.50;99.90
8595;DHT22;4335;48.860;9.198;2023-04-03T09:58:50;6.60;99.90
8595;DHT22;4335;48.860;9.198;2023-04-03T10:01:25;6.60;99.90
8595;DHT22;4335;48.860;9.198;2023-04-03T10:04:05;6.60;99.90
8595;DHT22;4335;48.860;9.198;2023-04-03T10:06:34;6.50;99.90
8595;DHT22;4335;48.860;9.198;2023-04-03T10:09:10;6.60;99.90
8595;DHT22;4335;48.860;9.198;2023-04-03T10:11:58;6.70;99.90
8595;DHT22;4335;48.860;9.198;2023-04-03T10:14:27;6.60;99.90
8595;DHT22;4335;48.860;9.198;2023-04-03T10:17:11;6.50;99.90
8595;DHT22;4335;48.860;9.198;2023-04-03T10:19:45;6.30;99.90
8595;DHT22;4335;48.860;9.198;2023-04-03T10:22:19;6.20;99.90
8595;DHT22;4335;48.860;9.198;2023-04-03T10:24:56;6.30;99.90
8595;DHT22;4335;48.860;9.198;2023-04-03T10:27:36;6.20;99.90
8595;DHT22;4335;48.860;9.198;2023-04-03T10:30:18;6.10;99.90
8595;DHT22;4335;48.860;9.198;2023-04-03T10:32:58;6.20;99.90
8595;DHT22;4335;48.860;9.198;2023-04-03T10:35:44;6.20;99.90
8595;DHT22;4335;48.860;9.198;2023-04-03T10:38:18;6.30;99.90
8595;DHT22;4335;48.860;9.198;2023-04-03T10:40:57;6.30;99.90
8595;DHT22;4335;48.860;9.198;2023-04-03T10:43:33;6.30;99.90
8595;DHT22;4335;48.860;9.198;2023-04-03T10:46:16;6.40;99.90
8595;DHT22;4335;48.860;9.198;2023-04-03T10:48:59;6.30;99.90
8595;DHT22;4335;48.860;9.198;2023-04-03T10:51:34;6.30;99.90
8595;DHT22;4335;48.860;9.198;2023-04-03T10:54:08;6.40;99.90
8595;DHT22;4335;48.860;9.198;2023-04-03T10:56:41;6.50;99.90
8595;DHT22;4335;48.860;9.198;2023-04-03T10:59:21;6.50;99.90
8595;DHT22;4335;48.860;9.198;2023-04-03T11:01:56;6.60;99.90
8595;DHT22;4335;48.860;9.198;2023-04-03T11:04:33;6.70;99.90
8595;DHT22;4335;48.860;9.198;2023-04-03T11:07:04;6.70;99.90
8595;DHT22;4335;48.860;9.198;2023-04-03T11:09:35;6.70;99.90
8595;DHT22;4335;48.860;9.198;2023-04-03T11:12:11;6.60;99.90
8595;DHT22;4335;48.860;9.198;2023-04-03T11:14:42;6.60;99.90
8595;DHT22;4335;48.860;9.198;2023-04-03T11:17:30;6.40;99.90
8595;DHT22;4335;48.860;9.198;2023-04-03T11:20:02;6.40;99.90
8595;DHT22;4335;48.860;9.198;2023-04-03T11:22:34;6.40;99.90
8595;DHT22;4335;48.860;9.198;2023-04-03T11:25:06;6.40;99.90
8595;DHT22;4335;48.860;9.198;2023-04-03T11:27:43;6.40;99.90
8595;DHT22;4335;48.860;9.198;2023-04-03T11:30:17;6.30;99.90
8595;DHT22;4335;48.860;9.198;2023-04-03T11:33:09;6.20;99.90
8595;DHT22;4335;48.860;9.198;2023-04-03T11:35:44;6.30;99.90
8595;DHT22;4335;48.860;9.198;2023-04-03T11:38:19;6.30;99.90
8595;DHT22;4335;48.860;9.198;2023-04-03T11:40:49;6.30;99.90
8595;DHT22;4335;48.860;9.198;2023-04-03T11:43:23;6.30;99.90
8595;DHT22;4335;48.860;9.198;2023-04-03T11:45:57;6.40;99.90
8595;DHT22;4335;48.860;9.198;2023-04-03T11:48:50;6.40;99.90
8595;DHT22;4335;48.860;9.198;2023-04-03T11:51:52;6.30;99.90
8595;DHT22;4335;48.860;9.198;2023-04-03T11:54:44;6.50;99.90
8595;DHT22;4335;48.860;9.198;2023-04-03T11:57:46;6.60;99.90
8595;DHT22;4335;48.860;9.198;2023-04-03T12:04:10;6.60;99.90
8595;DHT22;4335;48.860;9.198;2023-04-03T12:12:59;6.50;99.90
8595;DHT22;4335;48.860;9.198;2023-04-03T12:15:48;6.60;99.90
8595;DHT22;4335;48.860;9.198;2023-04-03T12:18:44;6.70;99.90
8595;DHT22;4335;48.860;9.198;2023-04-03T12:21:20;6.90;99.90
8595;DHT22;4335;48.860;9.198;2023-04-03T12:24:01;7.00;99.90
8595;DHT22;4335;48.860;9.198;2023-04-03T12:26:36;7.00;99.90
8595;DHT22;4335;48.860;9.198;2023-04-03T12:29:14;7.00;99.90
8595;DHT22;4335;48.860;9.198;2023-04-03T12:31:48;7.00;99.90
8595;DHT22;4335;48.860;9.198;2023-04-03T12:34:50;6.90;99.90
8595;DHT22;4335;48.860;9.198;2023-04-03T12:37:43;6.80;99.90
8595;DHT22;4335;48.860;9.198;2023-04-03T12:40:24;6.70;99.90
8595;DHT22;4335;48.860;9.198;2023-04-03T12:45:47;6.70;99.90
8595;DHT22;4335;48.860;9.198;2023-04-03T12:48:18;6.70;99.90
8595;DHT22;4335;48.860;9.198;2023-04-03T12:50:48;6.80;99.90
8595;DHT22;4335;48.860;9.198;2023-04-03T12:53:20;6.90;99.90
8595;DHT22;4335;48.860;9.198;2023-04-03T12:55:54;6.90;99.90
8595;DHT22;4335;48.860;9.198;2023-04-03T12:58:23;6.90;99.90
8595;DHT22;4335;48.860;9.198;2023-04-03T13:01:02;6.80;99.90
8595;DHT22;4335;48.860;9.198;2023-04-03T13:03:32;7.10;99.90
8595;DHT22;4335;48.860;9.198;2023-04-03T13:06:01;7.20;99.90
8595;DHT22;4335;48.860;9.198;2023-04-03T13:08:34;7.10;99.90
8595;DHT22;4335;48.860;9.198;2023-04-03T13:11:03;7.00;99.90
8595;DHT22;4335;48.860;9.198;2023-04-03T13:13:32;6.90;99.90
8595;DHT22;4335;48.860;9.198;2023-04-03T13:16:09;6.90;99.90
8595;DHT22;4335;48.860;9.198;2023-04-03T13:18:38;6.80;99.90
8595;DHT22;4335;48.860;9.198;2023-04-03T13:21:13;6.70;99.90
8595;DHT22;4335;48.860;9.198;2023-04-03T13:23:45;6.80;99.90
8595;DHT22;4335;48.860;9.198;2023-04-03T13:26:15;6.90;99.90
8595;DHT22;4335;48.860;9.198;2023-04-03T13:28:54;7.20;99.90
8595;DHT22;4335;48.860;9.198;2023-04-03T13:31:26;7.20;99.90
8595;DHT22;4335;48.860;9.198;2023-04-03T13:33:57;7.20;99.90
8595;DHT22;4335;48.860;9.198;2023-04-03T13:36:30;7.40;99.90
8595;DHT22;4335;48.860;9.198;2023-04-03T13:39:02;7.30;99.90
8595;DHT22;4335;48.860;9.198;2023-04-03T13:41:35;7.40;99.90
8595;DHT22;4335;48.860;9.198;2023-04-03T13:44:17;7.30;99.90
8595;DHT22;4335;48.860;9.198;2023-04-03T13:46:45;7.40;99.90
8595;DHT22;4335;48.860;9.198;2023-04-03T13:49:27;7.40;99.90
8595;DHT22;4335;48.860;9.198;2023-04-03T13:51:55;7.40;99.90
8595;DHT22;4335;48.860;9.198;2023-04-03T13:54:29;7.50;99.90
8595;DHT22;4335;48.860;9.198;2023-04-03T13:56:58;7.50;99.90
8595;DHT22;4335;48.860;9.198;2023-04-03T13:59:30;7.50;99.90
8595;DHT22;4335;48.860;9.198;2023-04-03T14:02:14;7.50;99.90
8595;DHT22;4335;48.860;9.198;2023-04-03T14:04:52;7.50;99.90
8595;DHT22;4335;48.860;9.198;2023-04-03T14:07:22;7.40;99.90
8595;DHT22;4335;48.860;9.198;2023-04-03T14:09:54;7.50;99.90
8595;DHT22;4335;48.860;9.198;2023-04-03T14:12:25;7.50;99.90
8595;DHT22;4335;48.860;9.198;2023-04-03T14:14:53;7.60;99.90
8595;DHT22;4335;48.860;9.198;2023-04-03T14:17:24;7.40;99.90
8595;DHT22;4335;48.860;9.198;2023-04-03T14:19:53;7.40;99.30
8595;DHT22;4335;48.860;9.198;2023-04-03T14:22:23;7.30;98.90
8595;DHT22;4335;48.860;9.198;2023-04-03T14:24:52;7.30;99.70
8595;DHT22;4335;48.860;9.198;2023-04-03T14:27:22;7.30;98.40
8595;DHT22;4335;48.860;9.198;2023-04-03T14:29:52;7.30;98.90
8595;DHT22;4335;48.860;9.198;2023-04-03T14:32:24;7.40;98.50
8595;DHT22;4335;48.860;9.198;2023-04-03T14:34:55;7.50;98.40
8595;DHT22;4335;48.860;9.198;2023-04-03T14:37:26;7.50;98.70
8595;DHT22;4335;48.860;9.198;2023-04-03T14:39:57;7.40;99.40
8595;DHT22;4335;48.860;9.198;2023-04-03T14:42:27;7.50;99.20
8595;DHT22;4335;48.860;9.198;2023-04-03T14:44:58;7.50;99.00
8595;DHT22;4335;48.860;9.198;2023-04-03T14:47:31;7.40;99.10
8595;DHT22;4335;48.860;9.198;2023-04-03T14:49:59;7.30;99.30
8595;DHT22;4335;48.860;9.198;2023-04-03T14:52:28;7.50;99.90
8595;DHT22;4335;48.860;9.198;2023-04-03T14:55:04;7.50;99.40
8595;DHT22;4335;48.860;9.198;2023-04-03T14:57:33;7.60;99.90
8595;DHT22;4335;48.860;9.198;2023-04-03T15:00:06;7.60;98.70
8595;DHT22;4335;48.860;9.198;2023-04-03T15:02:36;7.70;99.90
8595;DHT22;4335;48.860;9.198;2023-04-03T15:05:06;7.50;97.50
8595;DHT22;4335;48.860;9.198;2023-04-03T15:07:36;7.50;97.90
8595;DHT22;4335;48.860;9.198;2023-04-03T15:10:17;7.60;98.50
8595;DHT22;4335;48.860;9.198;2023-04-03T15:12:49;7.60;97.30
8595;DHT22;4335;48.860;9.198;2023-04-03T15:15:18;7.60;97.70
8595;DHT22;4335;48.860;9.198;2023-04-03T15:17:48;7.60;98.30
8595;DHT22;4335;48.860;9.198;2023-04-03T15:20:21;7.60;98.60
8595;DHT22;4335;48.860;9.198;2023-04-03T15:22:52;7.60;99.40
8595;DHT22;4335;48.860;9.198;2023-04-03T15:25:23;7.60;98.90
8595;DHT22;4335;48.860;9.198;2023-04-03T15:27:54;7.30;99.10
8595;DHT22;4335;48.860;9.198;2023-04-03T15:30:22;7.20;99.10
8595;DHT22;4335;48.860;9.198;2023-04-03T15:32:52;7.10;99.30
8595;DHT22;4335;48.860;9.198;2023-04-03T15:35:20;7.00;98.90
8595;DHT22;4335;48.860;9.198;2023-04-03T15:37:47;6.90;98.30
8595;DHT22;4335;48.860;9.198;2023-04-03T15:40:15;6.90;97.50
8595;DHT22;4335;48.860;9.198;2023-04-03T15:42:44;6.90;97.30
8595;DHT22;4335;48.860;9.198;2023-04-03T15:45:12;7.00;97.70
8595;DHT22;4335;48.860;9.198;2023-04-03T15:47:39;7.10;97.50
8595;DHT22;4335;48.860;9.198;2023-04-03T15:50:07;7.20;97.20
8595;DHT22;4335;48.860;9.198;2023-04-03T15:52:35;7.30;97.20
8595;DHT22;4335;48.860;9.198;2023-04-03T15:55:06;7.40;96.60
8595;DHT22;4335;48.860;9.198;2023-04-03T15:57:36;7.60;97.40
8595;DHT22;4335;48.860;9.198;2023-04-03T16:00:06;7.70;97.70
8595;DHT22;4335;48.860;9.198;2023-04-03T16:02:34;7.70;97.60
8595;DHT22;4335;48.860;9.198;2023-04-03T16:05:02;7.60;98.30
8595;DHT22;4335;48.860;9.198;2023-04-03T16:07:32;7.40;97.70
8595;DHT22;4335;48.860;9.198;2023-04-03T16:10:00;7.20;97.50
8595;DHT22;4335;48.860;9.198;2023-04-03T16:12:27;7.00;97.00
8595;DHT22;4335;48.860;9.198;2023-04-03T16:14:54;6.80;97.40
8595;DHT22;4335;48.860;9.198;2023-04-03T16:17:23;6.70;97.50
8595;DHT22;4335;48.860;9.198;2023-04-03T16:19:51;6.60;97.20
8595;DHT22;4335;48.860;9.198;2023-04-03T16:22:26;6.60;97.50
8595;DHT22;4335;48.860;9.198;2023-04-03T16:24:55;6.60;98.40
8595;DHT22;4335;48.860;9.198;2023-04-03T16:27:22;6.60;99.20
8595;DHT22;4335;48.860;9.198;2023-04-03T16:29:53;6.60;99.20
8595;DHT22;4335;48.860;9.198;2023-04-03T16:32:20;6.70;99.20
8595;DHT22;4335;48.860;9.198;2023-04-03T16:34:51;6.70;98.60
8595;DHT22;4335;48.860;9.198;2023-04-03T16:37:19;6.80;98.60
8595;DHT22;4335;48.860;9.198;2023-04-03T16:39:47;6.80;99.30
8595;DHT22;4335;48.860;9.198;2023-04-03T16:42:17;6.80;98.80
8595;DHT22;4335;48.860;9.198;2023-04-03T16:44:44;6.70;98.40
8595;DHT22;4335;48.860;9.198;2023-04-03T16:47:12;6.70;98.40
8595;DHT22;4335;48.860;9.198;2023-04-03T16:49:45;6.70;98.50
8595;DHT22;4335;48.860;9.198;2023-04-03T16:52:14;6.60;98.30
8595;DHT22;4335;48.860;9.198;2023-04-03T16:54:44;6.60;98.40
8595;DHT22;4335;48.860;9.198;2023-04-03T16:57:12;6.50;98.70
8595;DHT22;4335;48.860;9.198;2023-04-03T16:59:39;6.50;99.10
8595;DHT22;4335;48.860;9.198;2023-04-03T17:02:09;6.50;98.90
8595;DHT22;4335;48.860;9.198;2023-04-03T17:04:37;6.50;98.80
8595;DHT22;4335;48.860;9.198;2023-04-03T17:07:04;6.40;99.20
8595;DHT22;4335;48.860;9.198;2023-04-03T17:09:34;6.40;98.90
8595;DHT22;4335;48.860;9.198;2023-04-03T17:12:02;6.40;98.80